HAZ1024 ZSSS-RCSS
Flight info
| Callsign | HAZ1024 |
|---|---|
| Flight time | 1h 29m |
| Altitude | 36100 |
| Route | NXD61D NXD W131 AKDIM A470 BZ/K0865S1070 R596 SULEM/N0470F340 R596 BERBA B591 APU APU1F |
| Aircraft | A320/M-SDE3FGHIRWY/LB1 |
Departure
| Time | 2026-05-07 00:42 |
|---|---|
| Airport | Shanghai Hongqiao International Airport (ZSSS) |
Arrival
| Time | 2026-05-07 02:11 |
|---|---|
| Airport | Taipei Songshan International Airport (RCSS) |
| Time | Latitude | Longitude | Altitude | Speed | Heading |
|---|---|---|---|---|---|
| 2026-05-07 00:12 | 31.20935 | 121.32721 | 19 ft | 0 kts | 267° |
| 2026-05-07 00:32 | 31.20935 | 121.32734 | 19 ft | 3 kts | 267° |
| 2026-05-07 00:32 | 31.20936 | 121.32757 | 19 ft | 3 kts | 268° |
| 2026-05-07 00:32 | 31.20937 | 121.32781 | 19 ft | 3 kts | 270° |
| 2026-05-07 00:33 | 31.20936 | 121.32805 | 19 ft | 3 kts | 281° |
| 2026-05-07 00:33 | 31.20930 | 121.32825 | 21 ft | 3 kts | 319° |
| 2026-05-07 00:33 | 31.20923 | 121.32831 | 19 ft | 0 kts | 357° |
| 2026-05-07 00:33 | 31.20922 | 121.32832 | 19 ft | 0 kts | 357° |
| 2026-05-07 00:35 | 31.20923 | 121.32831 | 19 ft | 1 kts | 357° |
| 2026-05-07 00:35 | 31.21019 | 121.32826 | 19 ft | 13 kts | 357° |
| 2026-05-07 00:35 | 31.21106 | 121.32823 | 19 ft | 8 kts | 19° |
| 2026-05-07 00:36 | 31.21131 | 121.32871 | 19 ft | 7 kts | 81° |
| 2026-05-07 00:36 | 31.21158 | 121.32899 | 19 ft | 5 kts | 14° |
| 2026-05-07 00:36 | 31.21190 | 121.32899 | 19 ft | 4 kts | 357° |
| 2026-05-07 00:36 | 31.21217 | 121.32898 | 19 ft | 3 kts | 357° |
| 2026-05-07 00:37 | 31.21238 | 121.32896 | 19 ft | 3 kts | 356° |
| 2026-05-07 00:37 | 31.21269 | 121.32903 | 21 ft | 5 kts | 22° |
| 2026-05-07 00:37 | 31.21284 | 121.32935 | 19 ft | 7 kts | 86° |
| 2026-05-07 00:37 | 31.21286 | 121.33000 | 19 ft | 8 kts | 88° |
| 2026-05-07 00:38 | 31.21288 | 121.33058 | 19 ft | 7 kts | 88° |
| 2026-05-07 00:38 | 31.21290 | 121.33111 | 19 ft | 6 kts | 88° |
| 2026-05-07 00:38 | 31.21292 | 121.33164 | 18 ft | 9 kts | 86° |
| 2026-05-07 00:38 | 31.21296 | 121.33242 | 18 ft | 9 kts | 86° |
| 2026-05-07 00:39 | 31.21299 | 121.33309 | 19 ft | 9 kts | 88° |
| 2026-05-07 00:39 | 31.21301 | 121.33373 | 19 ft | 7 kts | 88° |
| 2026-05-07 00:39 | 31.21304 | 121.33440 | 19 ft | 9 kts | 86° |
| 2026-05-07 00:39 | 31.21306 | 121.33502 | 20 ft | 7 kts | 91° |
| 2026-05-07 00:40 | 31.21288 | 121.33542 | 21 ft | 5 kts | 142° |
| 2026-05-07 00:40 | 31.21258 | 121.33551 | 20 ft | 4 kts | 172° |
| 2026-05-07 00:40 | 31.21223 | 121.33551 | 21 ft | 9 kts | 179° |
| 2026-05-07 00:40 | 31.21156 | 121.33555 | 20 ft | 10 kts | 176° |
| 2026-05-07 00:41 | 31.21140 | 121.33556 | 19 ft | 5 kts | 177° |
| 2026-05-07 00:41 | 31.20862 | 121.33571 | 21 ft | 79 kts | 178° |
| 2026-05-07 00:41 | 31.20100 | 121.33612 | 18 ft | 138 kts | 177° |
| 2026-05-07 00:41 | 31.18988 | 121.33672 | 149 ft | 174 kts | 177° |
| 2026-05-07 00:42 | 31.17725 | 121.33756 | 625 ft | 191 kts | 176° |
| 2026-05-07 00:42 | 31.16364 | 121.33844 | 1306 ft | 201 kts | 179° |
| 2026-05-07 00:42 | 31.14883 | 121.33877 | 1825 ft | 225 kts | 180° |
| 2026-05-07 00:42 | 31.13237 | 121.33898 | 2352 ft | 249 kts | 181° |
| 2026-05-07 00:43 | 31.11456 | 121.33927 | 3120 ft | 261 kts | 180° |
| 2026-05-07 00:43 | 31.09621 | 121.33965 | 4000 ft | 269 kts | 180° |
| 2026-05-07 00:43 | 31.07720 | 121.34012 | 4927 ft | 275 kts | 180° |
| 2026-05-07 00:43 | 31.05794 | 121.33949 | 5880 ft | 278 kts | 193° |
| 2026-05-07 00:44 | 31.04104 | 121.32919 | 6803 ft | 277 kts | 227° |
| 2026-05-07 00:44 | 31.03186 | 121.30985 | 7713 ft | 277 kts | 259° |
| 2026-05-07 00:44 | 31.03223 | 121.28746 | 8656 ft | 280 kts | 280° |
| 2026-05-07 00:44 | 31.03733 | 121.26540 | 9588 ft | 284 kts | 286° |
| 2026-05-07 00:45 | 31.04366 | 121.24371 | 10402 ft | 288 kts | 287° |
| 2026-05-07 00:45 | 31.05003 | 121.22123 | 11070 ft | 300 kts | 285° |
| 2026-05-07 00:45 | 31.05614 | 121.19702 | 11375 ft | 323 kts | 283° |
| 2026-05-07 00:45 | 31.06195 | 121.17086 | 11770 ft | 340 kts | 281° |
| 2026-05-07 00:46 | 31.06700 | 121.14368 | 12493 ft | 345 kts | 275° |
| 2026-05-07 00:46 | 31.06698 | 121.11577 | 13254 ft | 345 kts | 261° |
| 2026-05-07 00:46 | 31.06125 | 121.08858 | 14005 ft | 347 kts | 253° |
| 2026-05-07 00:46 | 31.05439 | 121.06156 | 14711 ft | 348 kts | 253° |
| 2026-05-07 00:47 | 31.04759 | 121.03436 | 15402 ft | 350 kts | 253° |
| 2026-05-07 00:47 | 31.04080 | 121.00696 | 16092 ft | 352 kts | 253° |
| 2026-05-07 00:47 | 31.03402 | 120.97946 | 16748 ft | 355 kts | 253° |
| 2026-05-07 00:47 | 31.02718 | 120.95176 | 17409 ft | 357 kts | 253° |
| 2026-05-07 00:48 | 31.02031 | 120.92387 | 18063 ft | 359 kts | 253° |
| 2026-05-07 00:48 | 31.01338 | 120.89581 | 18618 ft | 362 kts | 253° |
| 2026-05-07 00:48 | 31.00641 | 120.86775 | 19138 ft | 364 kts | 253° |
| 2026-05-07 00:48 | 30.99934 | 120.83931 | 19645 ft | 367 kts | 254° |
| 2026-05-07 00:49 | 30.99219 | 120.81062 | 20154 ft | 370 kts | 254° |
| 2026-05-07 00:49 | 30.98506 | 120.78213 | 20661 ft | 373 kts | 254° |
| 2026-05-07 00:49 | 30.97776 | 120.75302 | 21157 ft | 376 kts | 254° |
| 2026-05-07 00:49 | 30.97041 | 120.72370 | 21659 ft | 378 kts | 254° |
| 2026-05-07 00:50 | 30.96301 | 120.69414 | 22144 ft | 381 kts | 254° |
| 2026-05-07 00:50 | 30.95555 | 120.66439 | 22628 ft | 384 kts | 254° |
| 2026-05-07 00:50 | 30.94807 | 120.63442 | 23116 ft | 387 kts | 254° |
| 2026-05-07 00:50 | 30.94051 | 120.60421 | 23573 ft | 390 kts | 254° |
| 2026-05-07 00:51 | 30.93291 | 120.57381 | 23979 ft | 392 kts | 254° |
| 2026-05-07 00:51 | 30.92524 | 120.54325 | 24374 ft | 394 kts | 254° |
| 2026-05-07 00:51 | 30.91751 | 120.51254 | 24781 ft | 397 kts | 254° |
| 2026-05-07 00:51 | 30.90965 | 120.48164 | 25160 ft | 399 kts | 253° |
| 2026-05-07 00:52 | 30.89865 | 120.45188 | 25533 ft | 403 kts | 242° |
| 2026-05-07 00:52 | 30.88263 | 120.42493 | 25911 ft | 408 kts | 232° |
| 2026-05-07 00:52 | 30.86211 | 120.40189 | 26283 ft | 415 kts | 221° |
| 2026-05-07 00:52 | 30.84654 | 120.38873 | 26529 ft | 418 kts | 219° |
| 2026-05-07 00:53 | 30.82277 | 120.36917 | 26909 ft | 420 kts | 219° |
| 2026-05-07 00:53 | 30.79100 | 120.34302 | 27402 ft | 423 kts | 219° |
| 2026-05-07 00:53 | 30.76693 | 120.32324 | 27788 ft | 426 kts | 219° |
| 2026-05-07 00:53 | 30.74267 | 120.30330 | 28149 ft | 428 kts | 219° |
| 2026-05-07 00:54 | 30.71827 | 120.28321 | 28494 ft | 430 kts | 219° |
| 2026-05-07 00:54 | 30.70174 | 120.26959 | 28720 ft | 432 kts | 219° |
| 2026-05-07 00:54 | 30.67718 | 120.24939 | 29061 ft | 434 kts | 219° |
| 2026-05-07 00:54 | 30.65248 | 120.22909 | 29406 ft | 436 kts | 219° |
| 2026-05-07 00:55 | 30.62774 | 120.20878 | 29736 ft | 438 kts | 219° |
| 2026-05-07 00:55 | 30.60277 | 120.18834 | 30052 ft | 440 kts | 219° |
| 2026-05-07 00:55 | 30.57775 | 120.16789 | 30336 ft | 441 kts | 219° |
| 2026-05-07 00:55 | 30.55266 | 120.14740 | 30679 ft | 440 kts | 219° |
| 2026-05-07 00:56 | 30.52798 | 120.12726 | 31088 ft | 439 kts | 219° |
| 2026-05-07 00:56 | 30.50309 | 120.10695 | 31485 ft | 437 kts | 220° |
| 2026-05-07 00:56 | 30.47824 | 120.08670 | 31874 ft | 436 kts | 220° |
| 2026-05-07 00:56 | 30.45345 | 120.06648 | 32262 ft | 435 kts | 220° |
| 2026-05-07 00:57 | 30.42827 | 120.04702 | 32635 ft | 437 kts | 215° |
| 2026-05-07 00:57 | 30.40197 | 120.02939 | 33018 ft | 436 kts | 215° |
| 2026-05-07 00:57 | 30.37569 | 120.01182 | 33401 ft | 435 kts | 215° |
| 2026-05-07 00:57 | 30.34951 | 119.99435 | 33776 ft | 435 kts | 215° |
| 2026-05-07 00:58 | 30.32331 | 119.97695 | 34129 ft | 434 kts | 216° |
| 2026-05-07 00:58 | 30.29715 | 119.95961 | 34464 ft | 433 kts | 216° |
| 2026-05-07 00:58 | 30.27103 | 119.94228 | 34796 ft | 432 kts | 216° |
| 2026-05-07 00:58 | 30.24498 | 119.92498 | 35099 ft | 431 kts | 216° |
| 2026-05-07 00:59 | 30.19306 | 119.89048 | 35691 ft | 430 kts | 216° |
| 2026-05-07 00:59 | 30.16711 | 119.87324 | 35980 ft | 430 kts | 217° |
| 2026-05-07 01:00 | 30.11526 | 119.83883 | 36062 ft | 429 kts | 217° |
| 2026-05-07 01:00 | 30.06348 | 119.80459 | 36066 ft | 429 kts | 217° |
| 2026-05-07 01:01 | 30.01190 | 119.77024 | 36066 ft | 428 kts | 217° |
| 2026-05-07 01:01 | 29.96050 | 119.73554 | 36069 ft | 428 kts | 218° |
| 2026-05-07 01:02 | 29.90907 | 119.70084 | 36072 ft | 429 kts | 218° |
| 2026-05-07 01:02 | 29.85522 | 119.67095 | 36069 ft | 442 kts | 204° |
| 2026-05-07 01:02 | 29.82473 | 119.66357 | 36066 ft | 454 kts | 194° |
| 2026-05-07 01:03 | 29.79300 | 119.66145 | 36063 ft | 459 kts | 190° |
| 2026-05-07 01:03 | 29.72924 | 119.65813 | 36057 ft | 458 kts | 191° |
| 2026-05-07 01:04 | 29.66559 | 119.65363 | 36055 ft | 458 kts | 192° |
| 2026-05-07 01:04 | 29.60181 | 119.64910 | 36057 ft | 460 kts | 191° |
| 2026-05-07 01:05 | 29.53752 | 119.64710 | 36064 ft | 463 kts | 189° |
| 2026-05-07 01:05 | 29.47314 | 119.64462 | 36062 ft | 462 kts | 191° |
| 2026-05-07 01:06 | 29.40903 | 119.64054 | 36063 ft | 462 kts | 192° |
| 2026-05-07 01:06 | 29.34535 | 119.63617 | 36063 ft | 462 kts | 192° |
| 2026-05-07 01:07 | 29.28113 | 119.63205 | 36064 ft | 462 kts | 191° |
| 2026-05-07 01:07 | 29.21687 | 119.62820 | 36069 ft | 463 kts | 191° |
| 2026-05-07 01:08 | 29.15257 | 119.62439 | 36060 ft | 463 kts | 191° |
| 2026-05-07 01:08 | 29.08829 | 119.62048 | 36066 ft | 462 kts | 191° |
| 2026-05-07 01:09 | 29.02407 | 119.61644 | 36069 ft | 462 kts | 191° |
| 2026-05-07 01:09 | 28.95985 | 119.61242 | 36074 ft | 462 kts | 191° |
| 2026-05-07 01:10 | 28.89555 | 119.60846 | 36077 ft | 463 kts | 191° |
| 2026-05-07 01:10 | 28.83119 | 119.60447 | 36079 ft | 463 kts | 191° |
| 2026-05-07 01:11 | 28.76688 | 119.60053 | 36083 ft | 463 kts | 191° |
| 2026-05-07 01:11 | 28.70297 | 119.59654 | 36081 ft | 463 kts | 191° |
| 2026-05-07 01:12 | 28.63863 | 119.59248 | 36083 ft | 463 kts | 191° |
| 2026-05-07 01:12 | 28.57429 | 119.58848 | 36084 ft | 463 kts | 191° |
| 2026-05-07 01:13 | 28.50982 | 119.58450 | 36089 ft | 464 kts | 191° |
| 2026-05-07 01:13 | 28.44536 | 119.58054 | 36088 ft | 464 kts | 190° |
| 2026-05-07 01:14 | 28.38081 | 119.57687 | 36101 ft | 465 kts | 190° |
| 2026-05-07 01:14 | 28.31609 | 119.57345 | 36100 ft | 466 kts | 190° |
| 2026-05-07 01:15 | 28.25138 | 119.56990 | 36101 ft | 466 kts | 190° |
| 2026-05-07 01:15 | 28.18641 | 119.56821 | 36101 ft | 474 kts | 180° |
| 2026-05-07 01:15 | 28.15378 | 119.57619 | 36103 ft | 487 kts | 166° |
| 2026-05-07 01:16 | 28.12301 | 119.59302 | 36101 ft | 497 kts | 151° |
| 2026-05-07 01:16 | 28.09625 | 119.61820 | 36100 ft | 506 kts | 135° |
| 2026-05-07 01:16 | 28.07528 | 119.65029 | 36093 ft | 510 kts | 120° |
| 2026-05-07 01:17 | 28.04858 | 119.72484 | 36088 ft | 512 kts | 111° |
| 2026-05-07 01:17 | 28.02388 | 119.80064 | 36091 ft | 514 kts | 110° |
| 2026-05-07 01:18 | 27.99914 | 119.87653 | 36099 ft | 515 kts | 111° |
| 2026-05-07 01:18 | 27.97428 | 119.95242 | 36106 ft | 514 kts | 111° |
| 2026-05-07 01:19 | 27.94950 | 120.02775 | 36115 ft | 514 kts | 111° |
| 2026-05-07 01:19 | 27.92459 | 120.10356 | 36111 ft | 514 kts | 111° |
| 2026-05-07 01:20 | 27.89969 | 120.17926 | 36121 ft | 514 kts | 111° |
| 2026-05-07 01:20 | 27.87475 | 120.25489 | 36122 ft | 514 kts | 111° |
| 2026-05-07 01:21 | 27.84971 | 120.33046 | 36120 ft | 513 kts | 111° |
| 2026-05-07 01:21 | 27.82468 | 120.40587 | 36117 ft | 512 kts | 111° |
| 2026-05-07 01:22 | 27.79965 | 120.48108 | 36115 ft | 511 kts | 111° |
| 2026-05-07 01:22 | 27.77467 | 120.55616 | 36110 ft | 510 kts | 111° |
| 2026-05-07 01:23 | 27.75060 | 120.63147 | 36107 ft | 510 kts | 105° |
| 2026-05-07 01:23 | 27.73647 | 120.70932 | 36103 ft | 510 kts | 100° |
| 2026-05-07 01:24 | 27.72311 | 120.78784 | 36102 ft | 509 kts | 101° |
| 2026-05-07 01:24 | 27.70961 | 120.86623 | 36103 ft | 509 kts | 101° |
| 2026-05-07 01:25 | 27.69599 | 120.94472 | 36108 ft | 509 kts | 101° |
| 2026-05-07 01:25 | 27.68238 | 121.02317 | 36107 ft | 509 kts | 101° |
| 2026-05-07 01:26 | 27.66880 | 121.10148 | 36109 ft | 509 kts | 101° |
| 2026-05-07 01:26 | 27.65514 | 121.17989 | 36112 ft | 509 kts | 101° |
| 2026-05-07 01:27 | 27.64139 | 121.25830 | 36114 ft | 509 kts | 101° |
| 2026-05-07 01:27 | 27.62760 | 121.33662 | 36118 ft | 509 kts | 101° |
| 2026-05-07 01:28 | 27.61386 | 121.41441 | 36114 ft | 509 kts | 101° |
| 2026-05-07 01:28 | 27.60006 | 121.49256 | 36112 ft | 509 kts | 101° |
| 2026-05-07 01:29 | 27.58619 | 121.57076 | 36110 ft | 509 kts | 101° |
| 2026-05-07 01:29 | 27.57251 | 121.64902 | 36111 ft | 509 kts | 101° |
| 2026-05-07 01:30 | 27.55933 | 121.72737 | 36110 ft | 509 kts | 101° |
| 2026-05-07 01:30 | 27.54613 | 121.80569 | 36107 ft | 508 kts | 101° |
| 2026-05-07 01:31 | 27.53272 | 121.88385 | 36101 ft | 508 kts | 101° |
| 2026-05-07 01:31 | 27.51923 | 121.96198 | 36102 ft | 508 kts | 101° |
| 2026-05-07 01:32 | 27.50563 | 122.04007 | 36100 ft | 508 kts | 101° |
| 2026-05-07 01:32 | 27.49211 | 122.11764 | 36101 ft | 508 kts | 101° |
| 2026-05-07 01:33 | 27.47855 | 122.19569 | 36098 ft | 508 kts | 101° |
| 2026-05-07 01:33 | 27.46492 | 122.27374 | 36101 ft | 508 kts | 101° |
| 2026-05-07 01:34 | 27.45123 | 122.35174 | 36107 ft | 508 kts | 101° |
| 2026-05-07 01:34 | 27.43945 | 122.43009 | 36109 ft | 508 kts | 93° |
| 2026-05-07 01:35 | 27.43884 | 122.50941 | 36110 ft | 507 kts | 89° |
| 2026-05-07 01:35 | 27.43883 | 122.58880 | 36108 ft | 507 kts | 89° |
| 2026-05-07 01:36 | 27.43872 | 122.66813 | 36111 ft | 507 kts | 89° |
| 2026-05-07 01:36 | 27.43627 | 122.74686 | 36110 ft | 507 kts | 100° |
| 2026-05-07 01:36 | 27.42709 | 122.78499 | 36108 ft | 505 kts | 113° |
| 2026-05-07 01:37 | 27.41134 | 122.82008 | 36106 ft | 501 kts | 126° |
| 2026-05-07 01:37 | 27.38994 | 122.85073 | 36102 ft | 495 kts | 138° |
| 2026-05-07 01:37 | 27.36400 | 122.87567 | 36101 ft | 488 kts | 150° |
| 2026-05-07 01:37 | 27.33462 | 122.89414 | 36097 ft | 480 kts | 162° |
| 2026-05-07 01:38 | 27.30352 | 122.90730 | 36096 ft | 477 kts | 165° |
| 2026-05-07 01:38 | 27.24109 | 122.93284 | 36093 ft | 478 kts | 165° |
| 2026-05-07 01:39 | 27.17855 | 122.95864 | 36095 ft | 479 kts | 165° |
| 2026-05-07 01:39 | 27.11475 | 122.97521 | 36092 ft | 464 kts | 183° |
| 2026-05-07 01:39 | 27.08285 | 122.97391 | 36093 ft | 456 kts | 194° |
| 2026-05-07 01:40 | 27.05217 | 122.96649 | 36092 ft | 447 kts | 204° |
| 2026-05-07 01:40 | 26.99754 | 122.93600 | 36087 ft | 434 kts | 221° |
| 2026-05-07 01:40 | 26.97309 | 122.91650 | 35945 ft | 433 kts | 220° |
| 2026-05-07 01:41 | 26.94874 | 122.89710 | 35242 ft | 434 kts | 220° |
| 2026-05-07 01:41 | 26.92408 | 122.87748 | 34462 ft | 437 kts | 220° |
| 2026-05-07 01:41 | 26.89920 | 122.85771 | 33641 ft | 440 kts | 220° |
| 2026-05-07 01:41 | 26.87411 | 122.83784 | 32756 ft | 442 kts | 219° |
| 2026-05-07 01:42 | 26.84893 | 122.81795 | 31874 ft | 444 kts | 219° |
| 2026-05-07 01:42 | 26.82366 | 122.79796 | 31003 ft | 446 kts | 219° |
| 2026-05-07 01:42 | 26.79828 | 122.77786 | 30123 ft | 448 kts | 218° |
| 2026-05-07 01:42 | 26.77291 | 122.75777 | 29387 ft | 444 kts | 218° |
| 2026-05-07 01:43 | 26.74783 | 122.73794 | 28686 ft | 439 kts | 218° |
| 2026-05-07 01:43 | 26.72299 | 122.71832 | 27983 ft | 435 kts | 218° |
| 2026-05-07 01:43 | 26.69838 | 122.69889 | 27321 ft | 431 kts | 218° |
| 2026-05-07 01:43 | 26.67401 | 122.67965 | 26670 ft | 427 kts | 218° |
| 2026-05-07 01:44 | 26.64980 | 122.66049 | 26310 ft | 426 kts | 218° |
| 2026-05-07 01:44 | 26.62564 | 122.64136 | 26171 ft | 425 kts | 218° |
| 2026-05-07 01:44 | 26.60146 | 122.62221 | 26200 ft | 427 kts | 218° |
| 2026-05-07 01:44 | 26.57720 | 122.60307 | 26203 ft | 427 kts | 218° |
| 2026-05-07 01:45 | 26.55293 | 122.58396 | 26202 ft | 427 kts | 218° |
| 2026-05-07 01:45 | 26.52864 | 122.56483 | 26202 ft | 427 kts | 218° |
| 2026-05-07 01:45 | 26.50436 | 122.54575 | 26203 ft | 427 kts | 218° |
| 2026-05-07 01:45 | 26.48018 | 122.52674 | 25829 ft | 422 kts | 218° |
| 2026-05-07 01:46 | 26.45631 | 122.50798 | 25206 ft | 419 kts | 218° |
| 2026-05-07 01:46 | 26.43261 | 122.48936 | 24598 ft | 415 kts | 218° |
| 2026-05-07 01:46 | 26.40901 | 122.47080 | 24231 ft | 414 kts | 218° |
| 2026-05-07 01:46 | 26.38569 | 122.45244 | 24081 ft | 415 kts | 218° |
| 2026-05-07 01:47 | 26.36179 | 122.43366 | 24096 ft | 415 kts | 218° |
| 2026-05-07 01:47 | 26.33818 | 122.41513 | 23913 ft | 415 kts | 218° |
| 2026-05-07 01:47 | 26.31487 | 122.39683 | 23692 ft | 414 kts | 218° |
| 2026-05-07 01:47 | 26.29136 | 122.37840 | 23454 ft | 413 kts | 218° |
| 2026-05-07 01:48 | 26.26791 | 122.36004 | 23193 ft | 411 kts | 218° |
| 2026-05-07 01:48 | 26.24452 | 122.34171 | 22936 ft | 410 kts | 218° |
| 2026-05-07 01:48 | 26.22124 | 122.32349 | 22678 ft | 408 kts | 218° |
| 2026-05-07 01:48 | 26.19804 | 122.30536 | 22412 ft | 407 kts | 217° |
| 2026-05-07 01:49 | 26.18242 | 122.29317 | 22250 ft | 406 kts | 217° |
| 2026-05-07 01:49 | 26.15188 | 122.26930 | 21925 ft | 404 kts | 218° |
| 2026-05-07 01:49 | 26.12891 | 122.25135 | 21670 ft | 402 kts | 217° |
| 2026-05-07 01:49 | 26.10595 | 122.23361 | 21425 ft | 401 kts | 217° |
| 2026-05-07 01:50 | 26.09075 | 122.22198 | 21260 ft | 400 kts | 217° |
| 2026-05-07 01:50 | 26.06783 | 122.20449 | 21017 ft | 399 kts | 217° |
| 2026-05-07 01:50 | 26.04502 | 122.18711 | 20776 ft | 397 kts | 217° |
| 2026-05-07 01:50 | 26.02225 | 122.16974 | 20551 ft | 396 kts | 217° |
| 2026-05-07 01:51 | 25.99961 | 122.15245 | 20302 ft | 395 kts | 217° |
| 2026-05-07 01:51 | 25.97699 | 122.13517 | 20066 ft | 394 kts | 217° |
| 2026-05-07 01:51 | 25.95447 | 122.11795 | 19835 ft | 393 kts | 217° |
| 2026-05-07 01:51 | 25.93202 | 122.10078 | 19602 ft | 391 kts | 217° |
| 2026-05-07 01:52 | 25.90960 | 122.08364 | 19372 ft | 390 kts | 217° |
| 2026-05-07 01:52 | 25.88726 | 122.06660 | 19145 ft | 389 kts | 217° |
| 2026-05-07 01:52 | 25.86499 | 122.04961 | 18917 ft | 388 kts | 217° |
| 2026-05-07 01:52 | 25.84276 | 122.03264 | 18691 ft | 387 kts | 217° |
| 2026-05-07 01:53 | 25.82060 | 122.01573 | 18471 ft | 386 kts | 217° |
| 2026-05-07 01:53 | 25.79853 | 121.99888 | 18247 ft | 385 kts | 217° |
| 2026-05-07 01:53 | 25.77647 | 121.98208 | 17987 ft | 384 kts | 216° |
| 2026-05-07 01:53 | 25.75451 | 121.96538 | 17730 ft | 382 kts | 216° |
| 2026-05-07 01:54 | 25.73297 | 121.94904 | 17265 ft | 378 kts | 216° |
| 2026-05-07 01:54 | 25.71137 | 121.93262 | 16729 ft | 375 kts | 217° |
| 2026-05-07 01:54 | 25.69001 | 121.91624 | 16218 ft | 372 kts | 217° |
| 2026-05-07 01:54 | 25.66883 | 121.89990 | 15720 ft | 370 kts | 217° |
| 2026-05-07 01:55 | 25.64782 | 121.88366 | 15236 ft | 367 kts | 217° |
| 2026-05-07 01:55 | 25.62694 | 121.86751 | 14764 ft | 364 kts | 217° |
| 2026-05-07 01:55 | 25.60624 | 121.85150 | 14282 ft | 362 kts | 217° |
| 2026-05-07 01:55 | 25.58569 | 121.83562 | 13814 ft | 359 kts | 217° |
| 2026-05-07 01:56 | 25.56524 | 121.81986 | 13285 ft | 357 kts | 217° |
| 2026-05-07 01:56 | 25.54494 | 121.80424 | 12765 ft | 353 kts | 217° |
| 2026-05-07 01:56 | 25.52482 | 121.78881 | 12246 ft | 350 kts | 217° |
| 2026-05-07 01:56 | 25.50491 | 121.77353 | 11735 ft | 347 kts | 217° |
| 2026-05-07 01:57 | 25.48514 | 121.75833 | 11226 ft | 344 kts | 217° |
| 2026-05-07 01:57 | 25.46558 | 121.74332 | 10728 ft | 341 kts | 217° |
| 2026-05-07 01:57 | 25.44619 | 121.72845 | 10240 ft | 338 kts | 217° |
| 2026-05-07 01:57 | 25.42694 | 121.71368 | 10012 ft | 337 kts | 217° |
| 2026-05-07 01:58 | 25.40814 | 121.69926 | 9977 ft | 319 kts | 217° |
| 2026-05-07 01:58 | 25.39040 | 121.68567 | 9985 ft | 301 kts | 217° |
| 2026-05-07 01:58 | 25.37358 | 121.67280 | 9987 ft | 289 kts | 217° |
| 2026-05-07 01:58 | 25.35724 | 121.66027 | 9849 ft | 284 kts | 217° |
| 2026-05-07 01:59 | 25.34111 | 121.64790 | 9482 ft | 281 kts | 217° |
| 2026-05-07 01:59 | 25.32506 | 121.63561 | 9116 ft | 279 kts | 217° |
| 2026-05-07 01:59 | 25.30839 | 121.62478 | 8756 ft | 279 kts | 205° |
| 2026-05-07 01:59 | 25.28971 | 121.61899 | 8377 ft | 280 kts | 190° |
| 2026-05-07 02:00 | 25.27050 | 121.61882 | 8007 ft | 281 kts | 175° |
| 2026-05-07 02:00 | 25.25158 | 121.62430 | 7620 ft | 283 kts | 160° |
| 2026-05-07 02:00 | 25.23456 | 121.63520 | 7253 ft | 285 kts | 144° |
| 2026-05-07 02:00 | 25.22072 | 121.65083 | 6905 ft | 286 kts | 129° |
| 2026-05-07 02:01 | 25.21112 | 121.67004 | 6550 ft | 287 kts | 112° |
| 2026-05-07 02:01 | 25.20660 | 121.69143 | 6177 ft | 287 kts | 96° |
| 2026-05-07 02:01 | 25.20745 | 121.71338 | 5788 ft | 287 kts | 81° |
| 2026-05-07 02:01 | 25.21102 | 121.73500 | 5381 ft | 285 kts | 81° |
| 2026-05-07 02:02 | 25.21446 | 121.75647 | 4990 ft | 283 kts | 80° |
| 2026-05-07 02:02 | 25.21785 | 121.77782 | 4602 ft | 281 kts | 80° |
| 2026-05-07 02:02 | 25.22116 | 121.79899 | 4192 ft | 279 kts | 80° |
| 2026-05-07 02:02 | 25.22203 | 121.81991 | 4018 ft | 266 kts | 99° |
| 2026-05-07 02:03 | 25.21689 | 121.83866 | 4022 ft | 247 kts | 118° |
| 2026-05-07 02:03 | 25.20745 | 121.85351 | 4016 ft | 229 kts | 136° |
| 2026-05-07 02:03 | 25.19514 | 121.86396 | 4025 ft | 221 kts | 154° |
| 2026-05-07 02:03 | 25.18120 | 121.86987 | 4015 ft | 208 kts | 170° |
| 2026-05-07 02:04 | 25.16721 | 121.87136 | 3928 ft | 199 kts | 184° |
| 2026-05-07 02:04 | 25.15353 | 121.87051 | 3756 ft | 196 kts | 186° |
| 2026-05-07 02:04 | 25.14000 | 121.86902 | 3548 ft | 196 kts | 188° |
| 2026-05-07 02:04 | 25.12656 | 121.86691 | 3362 ft | 195 kts | 191° |
| 2026-05-07 02:05 | 25.11311 | 121.86419 | 3205 ft | 198 kts | 193° |
| 2026-05-07 02:05 | 25.10061 | 121.85855 | 3080 ft | 194 kts | 218° |
| 2026-05-07 02:05 | 25.09177 | 121.84764 | 3023 ft | 191 kts | 243° |
| 2026-05-07 02:05 | 25.08804 | 121.83371 | 3024 ft | 190 kts | 265° |
| 2026-05-07 02:06 | 25.08705 | 121.81930 | 3025 ft | 191 kts | 265° |
| 2026-05-07 02:06 | 25.08598 | 121.80470 | 3029 ft | 191 kts | 265° |
| 2026-05-07 02:06 | 25.08487 | 121.79012 | 3025 ft | 191 kts | 265° |
| 2026-05-07 02:06 | 25.08374 | 121.77557 | 3026 ft | 191 kts | 265° |
| 2026-05-07 02:07 | 25.08261 | 121.76098 | 3022 ft | 191 kts | 265° |
| 2026-05-07 02:07 | 25.08037 | 121.73184 | 2995 ft | 190 kts | 265° |
| 2026-05-07 02:07 | 25.07925 | 121.71736 | 2791 ft | 190 kts | 265° |
| 2026-05-07 02:08 | 25.07813 | 121.70291 | 2547 ft | 187 kts | 265° |
| 2026-05-07 02:08 | 25.07701 | 121.68852 | 2168 ft | 189 kts | 265° |
| 2026-05-07 02:08 | 25.07590 | 121.67410 | 1832 ft | 189 kts | 265° |
| 2026-05-07 02:08 | 25.07483 | 121.66030 | 1735 ft | 170 kts | 265° |
| 2026-05-07 02:09 | 25.07390 | 121.64813 | 1744 ft | 150 kts | 265° |
| 2026-05-07 02:09 | 25.07304 | 121.63690 | 1561 ft | 145 kts | 265° |
| 2026-05-07 02:09 | 25.07222 | 121.62607 | 1327 ft | 140 kts | 265° |
| 2026-05-07 02:09 | 25.07141 | 121.61549 | 1109 ft | 137 kts | 265° |
| 2026-05-07 02:10 | 25.07072 | 121.60504 | 912 ft | 135 kts | 264° |
| 2026-05-07 02:10 | 25.06953 | 121.59476 | 680 ft | 135 kts | 264° |
| 2026-05-07 02:10 | 25.06869 | 121.58447 | 496 ft | 135 kts | 267° |
| 2026-05-07 02:10 | 25.06869 | 121.57412 | 321 ft | 135 kts | 273° |
| 2026-05-07 02:11 | 25.06921 | 121.56378 | 48 ft | 133 kts | 273° |
| 2026-05-07 02:11 | 25.06952 | 121.55469 | 28 ft | 99 kts | 272° |
| 2026-05-07 02:11 | 25.06973 | 121.54897 | 26 ft | 44 kts | 272° |
| 2026-05-07 02:11 | 25.06952 | 121.54750 | 29 ft | 17 kts | 246° |
| 2026-05-07 02:12 | 25.06897 | 121.54628 | 27 ft | 19 kts | 239° |
| 2026-05-07 02:12 | 25.06788 | 121.54544 | 27 ft | 21 kts | 194° |
| 2026-05-07 02:12 | 25.06691 | 121.54548 | 27 ft | 10 kts | 150° |
| 2026-05-07 02:12 | 25.06646 | 121.54597 | 27 ft | 9 kts | 121° |
| 2026-05-07 02:13 | 25.06614 | 121.54653 | 27 ft | 8 kts | 121° |
| 2026-05-07 02:13 | 25.06587 | 121.54704 | 27 ft | 8 kts | 120° |
| 2026-05-07 02:13 | 25.06567 | 121.54755 | 27 ft | 7 kts | 103° |
| 2026-05-07 02:13 | 25.06565 | 121.54806 | 27 ft | 6 kts | 88° |
| 2026-05-07 02:14 | 25.06566 | 121.54854 | 27 ft | 6 kts | 88° |
| 2026-05-07 02:14 | 25.06568 | 121.54899 | 27 ft | 6 kts | 89° |
| 2026-05-07 02:14 | 25.06569 | 121.54940 | 27 ft | 5 kts | 89° |
| 2026-05-07 02:14 | 25.06569 | 121.54979 | 27 ft | 5 kts | 88° |
| 2026-05-07 02:15 | 25.06556 | 121.55006 | 27 ft | 4 kts | 142° |
| 2026-05-07 02:15 | 25.06535 | 121.55007 | 27 ft | 3 kts | 179° |
| 2026-05-07 02:15 | 25.06517 | 121.55008 | 27 ft | 2 kts | 178° |
| 2026-05-07 02:15 | 25.06502 | 121.55009 | 27 ft | 2 kts | 178° |
| 2026-05-07 02:16 | 25.06489 | 121.55009 | 27 ft | 2 kts | 178° |
| 2026-05-07 02:16 | 25.06480 | 121.55009 | 27 ft | 0 kts | 178° |